sensor_id;sensor_type;location;lat;lon;timestamp;pressure;altitude;pressure_sealevel;temperature;humidity
50282;BME280;36176;51.506;10.272;2022-12-07T00:01:34;99353.41;;;2.17;97.12
50282;BME280;36176;51.506;10.272;2022-12-07T00:04:03;99360.34;;;2.19;97.60
50282;BME280;36176;51.506;10.272;2022-12-07T00:06:36;99353.41;;;2.18;97.38
50282;BME280;36176;51.506;10.272;2022-12-07T00:09:06;99352.53;;;2.18;97.59
50282;BME280;36176;51.506;10.272;2022-12-07T00:11:52;99352.56;;;2.16;97.01
50282;BME280;36176;51.506;10.272;2022-12-07T00:14:20;99345.53;;;2.20;97.53
50282;BME280;36176;51.506;10.272;2022-12-07T00:16:50;99338.59;;;2.19;97.51
50282;BME280;36176;51.506;10.272;2022-12-07T00:19:18;99339.53;;;2.13;97.84
50282;BME280;36176;51.506;10.272;2022-12-07T00:21:45;99330.88;;;2.11;97.98
50282;BME280;36176;51.506;10.272;2022-12-07T00:24:12;99326.56;;;2.08;97.65
50282;BME280;36176;51.506;10.272;2022-12-07T00:26:41;99327.41;;;2.09;98.46
50282;BME280;36176;51.506;10.272;2022-12-07T00:29:19;99326.50;;;2.11;98.07
50282;BME280;36176;51.506;10.272;2022-12-07T00:31:48;99323.84;;;2.13;98.61
50282;BME280;36176;51.506;10.272;2022-12-07T00:34:19;99322.13;;;2.13;98.28
50282;BME280;36176;51.506;10.272;2022-12-07T00:36:47;99328.19;;;2.16;98.91
50282;BME280;36176;51.506;10.272;2022-12-07T00:39:14;99312.50;;;2.14;98.46
50282;BME280;36176;51.506;10.272;2022-12-07T00:42:00;99307.28;;;2.16;98.58
50282;BME280;36176;51.506;10.272;2022-12-07T00:44:27;99302.06;;;2.14;97.98
50282;BME280;36176;51.506;10.272;2022-12-07T00:46:55;99301.16;;;2.15;98.51
50282;BME280;36176;51.506;10.272;2022-12-07T00:49:22;99302.03;;;2.16;98.77
50282;BME280;36176;51.506;10.272;2022-12-07T00:51:50;99309.88;;;2.16;98.64
50282;BME280;36176;51.506;10.272;2022-12-07T00:54:17;99303.69;;;2.20;98.55
50282;BME280;36176;51.506;10.272;2022-12-07T00:56:45;99296.69;;;2.22;98.65
50282;BME280;36176;51.506;10.272;2022-12-07T00:59:13;99295.78;;;2.24;98.26
50282;BME280;36176;51.506;10.272;2022-12-07T01:01:43;99294.94;;;2.22;98.41
50282;BME280;36176;51.506;10.272;2022-12-07T01:04:13;99283.63;;;2.23;98.68
50282;BME280;36176;51.506;10.272;2022-12-07T01:06:41;99289.63;;;2.27;98.45
50282;BME280;36176;51.506;10.272;2022-12-07T01:09:08;99287.94;;;2.26;98.66
50282;BME280;36176;51.506;10.272;2022-12-07T01:11:48;99284.41;;;2.28;98.49
50282;BME280;36176;51.506;10.272;2022-12-07T01:14:16;99287.88;;;2.27;98.21
50282;BME280;36176;51.506;10.272;2022-12-07T01:16:43;99283.53;;;2.28;98.18
50282;BME280;36176;51.506;10.272;2022-12-07T01:19:10;99281.78;;;2.28;98.14
50282;BME280;36176;51.506;10.272;2022-12-07T01:21:38;99280.03;;;2.29;97.99
50282;BME280;36176;51.506;10.272;2022-12-07T01:24:07;99280.03;;;2.27;98.87
50282;BME280;36176;51.506;10.272;2022-12-07T01:26:35;99280.94;;;2.26;98.53
50282;BME280;36176;51.506;10.272;2022-12-07T01:29:02;99275.72;;;2.25;98.77
50282;BME280;36176;51.506;10.272;2022-12-07T01:31:30;99274.03;;;2.22;98.50
50282;BME280;36176;51.506;10.272;2022-12-07T01:33:59;99275.81;;;2.20;98.78
50282;BME280;36176;51.506;10.272;2022-12-07T01:36:29;99275.91;;;2.16;98.71
50282;BME280;36176;51.506;10.272;2022-12-07T01:39:00;99267.97;;;2.20;99.18
50282;BME280;36176;51.506;10.272;2022-12-07T01:41:33;99279.22;;;2.25;99.10
50282;BME280;36176;51.506;10.272;2022-12-07T01:44:22;99274.84;;;2.26;98.65
50282;BME280;36176;51.506;10.272;2022-12-07T01:46:50;99273.03;;;2.31;98.60
50282;BME280;36176;51.506;10.272;2022-12-07T01:52:16;99273.88;;;2.33;98.68
50282;BME280;36176;51.506;10.272;2022-12-07T01:54:46;99275.69;;;2.28;98.38
50282;BME280;36176;51.506;10.272;2022-12-07T01:57:16;99268.81;;;2.22;98.25
50282;BME280;36176;51.506;10.272;2022-12-07T01:59:48;99265.34;;;2.22;98.25
50282;BME280;36176;51.506;10.272;2022-12-07T02:02:25;99266.22;;;2.21;99.04
50282;BME280;36176;51.506;10.272;2022-12-07T02:04:55;99270.69;;;2.16;99.23
50282;BME280;36176;51.506;10.272;2022-12-07T02:07:23;99268.94;;;2.15;98.67
50282;BME280;36176;51.506;10.272;2022-12-07T02:09:50;99268.06;;;2.16;98.90
50282;BME280;36176;51.506;10.272;2022-12-07T02:12:18;99267.16;;;2.17;99.35
50282;BME280;36176;51.506;10.272;2022-12-07T02:14:46;99266.25;;;2.19;99.18
50282;BME280;36176;51.506;10.272;2022-12-07T02:17:47;99263.56;;;2.24;98.86
50282;BME280;36176;51.506;10.272;2022-12-07T02:20:26;99255.66;;;2.27;98.87
50282;BME280;36176;51.506;10.272;2022-12-07T02:23:11;99256.50;;;2.27;98.87
50282;BME280;36176;51.506;10.272;2022-12-07T02:28:34;99254.00;;;2.23;99.07
50282;BME280;36176;51.506;10.272;2022-12-07T02:31:08;99250.56;;;2.21;99.37
50282;BME280;36176;51.506;10.272;2022-12-07T02:33:42;99254.81;;;2.25;99.33
50282;BME280;36176;51.506;10.272;2022-12-07T02:36:30;99253.13;;;2.22;99.33
50282;BME280;36176;51.506;10.272;2022-12-07T02:39:19;99248.72;;;2.24;99.48
50282;BME280;36176;51.506;10.272;2022-12-07T02:41:53;99244.34;;;2.25;99.58
50282;BME280;36176;51.506;10.272;2022-12-07T02:44:25;99246.16;;;2.23;99.60
50282;BME280;36176;51.506;10.272;2022-12-07T02:47:05;99240.94;;;2.21;99.51
50282;BME280;36176;51.506;10.272;2022-12-07T02:49:35;99240.97;;;2.20;99.51
50282;BME280;36176;51.506;10.272;2022-12-07T02:52:04;99230.47;;;2.23;99.99
50282;BME280;36176;51.506;10.272;2022-12-07T02:54:31;99227.81;;;2.24;100.00
50282;BME280;36176;51.506;10.272;2022-12-07T03:00:09;99223.44;;;2.26;100.00
50282;BME280;36176;51.506;10.272;2022-12-07T03:02:56;99215.59;;;2.25;100.00
50282;BME280;36176;51.506;10.272;2022-12-07T03:11:04;99220.03;;;2.23;100.00
50282;BME280;36176;51.506;10.272;2022-12-07T03:14:15;99213.06;;;2.22;100.00
50282;BME280;36176;51.506;10.272;2022-12-07T03:17:00;99215.66;;;2.23;100.00
50282;BME280;36176;51.506;10.272;2022-12-07T03:19:30;99214.72;;;2.26;100.00
50282;BME280;36176;51.506;10.272;2022-12-07T03:22:06;99208.59;;;2.27;100.00
50282;BME280;36176;51.506;10.272;2022-12-07T03:24:39;99208.59;;;2.28;100.00
50282;BME280;36176;51.506;10.272;2022-12-07T03:27:24;99205.03;;;2.32;100.00
50282;BME280;36176;51.506;10.272;2022-12-07T03:30:28;99204.13;;;2.35;100.00
50282;BME280;36176;51.506;10.272;2022-12-07T03:33:02;99203.19;;;2.38;100.00
50282;BME280;36176;51.506;10.272;2022-12-07T03:36:01;99195.28;;;2.41;100.00
50282;BME280;36176;51.506;10.272;2022-12-07T03:38:42;99192.59;;;2.44;100.00
50282;BME280;36176;51.506;10.272;2022-12-07T03:41:27;99193.50;;;2.44;100.00
50282;BME280;36176;51.506;10.272;2022-12-07T03:43:57;99190.00;;;2.44;100.00
50282;BME280;36176;51.506;10.272;2022-12-07T03:51:48;99196.91;;;2.46;100.00
50282;BME280;36176;51.506;10.272;2022-12-07T03:54:32;99196.91;;;2.48;100.00
50282;BME280;36176;51.506;10.272;2022-12-07T03:57:02;99190.75;;;2.50;100.00
50282;BME280;36176;51.506;10.272;2022-12-07T03:59:31;99192.41;;;2.54;100.00
50282;BME280;36176;51.506;10.272;2022-12-07T04:02:04;99192.38;;;2.56;100.00
50282;BME280;36176;51.506;10.272;2022-12-07T04:04:33;99190.59;;;2.58;100.00
50282;BME280;36176;51.506;10.272;2022-12-07T04:07:01;99192.34;;;2.59;100.00
50282;BME280;36176;51.506;10.272;2022-12-07T04:09:28;99194.03;;;2.62;100.00
50282;BME280;36176;51.506;10.272;2022-12-07T04:12:14;99189.72;;;2.59;100.00
50282;BME280;36176;51.506;10.272;2022-12-07T04:14:59;99192.25;;;2.62;100.00
50282;BME280;36176;51.506;10.272;2022-12-07T04:17:27;99196.63;;;2.62;100.00
50282;BME280;36176;51.506;10.272;2022-12-07T04:19:54;99200.09;;;2.64;100.00
50282;BME280;36176;51.506;10.272;2022-12-07T04:22:21;99194.78;;;2.67;100.00
50282;BME280;36176;51.506;10.272;2022-12-07T04:24:48;99188.69;;;2.66;100.00
50282;BME280;36176;51.506;10.272;2022-12-07T04:27:16;99198.25;;;2.67;100.00
50282;BME280;36176;51.506;10.272;2022-12-07T04:29:57;99193.03;;;2.67;100.00
50282;BME280;36176;51.506;10.272;2022-12-07T04:32:25;99198.16;;;2.72;100.00
50282;BME280;36176;51.506;10.272;2022-12-07T04:35:07;99199.88;;;2.73;100.00
50282;BME280;36176;51.506;10.272;2022-12-07T04:37:35;99203.34;;;2.75;100.00
50282;BME280;36176;51.506;10.272;2022-12-07T04:40:03;99205.91;;;2.78;100.00
50282;BME280;36176;51.506;10.272;2022-12-07T04:42:31;99206.78;;;2.79;100.00
50282;BME280;36176;51.506;10.272;2022-12-07T04:44:58;99208.47;;;2.80;100.00
50282;BME280;36176;51.506;10.272;2022-12-07T04:47:31;99210.13;;;2.85;100.00
50282;BME280;36176;51.506;10.272;2022-12-07T04:49:58;99211.00;;;2.86;100.00
50282;BME280;36176;51.506;10.272;2022-12-07T04:52:26;99210.16;;;2.84;100.00
50282;BME280;36176;51.506;10.272;2022-12-07T04:54:54;99211.91;;;2.83;100.00
50282;BME280;36176;51.506;10.272;2022-12-07T04:57:21;99210.16;;;2.84;100.00
50282;BME280;36176;51.506;10.272;2022-12-07T04:59:48;99206.69;;;2.83;100.00
50282;BME280;36176;51.506;10.272;2022-12-07T05:02:15;99207.53;;;2.84;100.00
50282;BME280;36176;51.506;10.272;2022-12-07T05:04:42;99212.78;;;2.84;100.00
50282;BME280;36176;51.506;10.272;2022-12-07T05:07:09;99213.59;;;2.86;100.00
50282;BME280;36176;51.506;10.272;2022-12-07T05:09:37;99204.91;;;2.85;100.00
50282;BME280;36176;51.506;10.272;2022-12-07T05:12:04;99198.84;;;2.82;100.00
50282;BME280;36176;51.506;10.272;2022-12-07T05:14:31;99192.88;;;2.75;100.00
50282;BME280;36176;51.506;10.272;2022-12-07T05:16:59;99204.22;;;2.75;100.00
50282;BME280;36176;51.506;10.272;2022-12-07T05:19:26;99199.88;;;2.74;100.00
50282;BME280;36176;51.506;10.272;2022-12-07T05:21:53;99189.47;;;2.71;100.00
50282;BME280;36176;51.506;10.272;2022-12-07T05:24:20;99189.53;;;2.68;100.00
50282;BME280;36176;51.506;10.272;2022-12-07T05:26:51;99197.50;;;2.62;100.00
50282;BME280;36176;51.506;10.272;2022-12-07T05:29:37;99192.34;;;2.58;100.00
50282;BME280;36176;51.506;10.272;2022-12-07T05:32:12;99183.81;;;2.48;99.78
50282;BME280;36176;51.506;10.272;2022-12-07T05:34:39;99190.91;;;2.41;99.60
50282;BME280;36176;51.506;10.272;2022-12-07T05:37:06;99188.44;;;2.33;100.00
50282;BME280;36176;51.506;10.272;2022-12-07T05:39:34;99183.19;;;2.35;100.00
50282;BME280;36176;51.506;10.272;2022-12-07T05:42:01;99194.50;;;2.36;100.00
50282;BME280;36176;51.506;10.272;2022-12-07T05:44:42;99188.28;;;2.41;100.00
50282;BME280;36176;51.506;10.272;2022-12-07T05:47:11;99189.16;;;2.42;100.00
50282;BME280;36176;51.506;10.272;2022-12-07T05:49:38;99183.03;;;2.44;100.00
50282;BME280;36176;51.506;10.272;2022-12-07T05:52:06;99186.44;;;2.46;100.00
50282;BME280;36176;51.506;10.272;2022-12-07T05:54:33;99189.88;;;2.50;100.00
50282;BME280;36176;51.506;10.272;2022-12-07T05:57:00;99191.56;;;2.52;100.00
50282;BME280;36176;51.506;10.272;2022-12-07T05:59:27;99194.13;;;2.55;100.00
50282;BME280;36176;51.506;10.272;2022-12-07T06:02:01;99184.47;;;2.59;100.00
50282;BME280;36176;51.506;10.272;2022-12-07T06:04:34;99183.50;;;2.63;100.00
50282;BME280;36176;51.506;10.272;2022-12-07T06:07:09;99176.56;;;2.62;100.00
50282;BME280;36176;51.506;10.272;2022-12-07T06:09:37;99185.34;;;2.60;100.00
50282;BME280;36176;51.506;10.272;2022-12-07T06:12:30;99186.28;;;2.55;100.00
50282;BME280;36176;51.506;10.272;2022-12-07T06:15:11;99186.38;;;2.51;100.00
50282;BME280;36176;51.506;10.272;2022-12-07T06:17:58;99183.81;;;2.49;100.00
50282;BME280;36176;51.506;10.272;2022-12-07T06:20:28;99182.88;;;2.52;100.00
50282;BME280;36176;51.506;10.272;2022-12-07T06:22:57;99180.22;;;2.53;100.00
50282;BME280;36176;51.506;10.272;2022-12-07T06:25:54;99181.06;;;2.55;100.00
50282;BME280;36176;51.506;10.272;2022-12-07T06:28:24;99179.34;;;2.54;100.00
50282;BME280;36176;51.506;10.272;2022-12-07T06:31:31;99179.25;;;2.59;100.00
50282;BME280;36176;51.506;10.272;2022-12-07T06:34:06;99178.44;;;2.55;99.47
50282;BME280;36176;51.506;10.272;2022-12-07T06:36:46;99173.16;;;2.59;99.83
50282;BME280;36176;51.506;10.272;2022-12-07T06:39:23;99174.94;;;2.57;100.00
50282;BME280;36176;51.506;10.272;2022-12-07T06:41:56;99164.59;;;2.50;99.65
50282;BME280;36176;51.506;10.272;2022-12-07T06:44:24;99169.88;;;2.47;99.76
50282;BME280;36176;51.506;10.272;2022-12-07T06:53:30;99168.22;;;2.42;100.00
50282;BME280;36176;51.506;10.272;2022-12-07T06:56:23;99166.44;;;2.44;100.00
50282;BME280;36176;51.506;10.272;2022-12-07T06:58:50;99174.28;;;2.45;100.00
50282;BME280;36176;51.506;10.272;2022-12-07T07:01:18;99182.91;;;2.49;100.00
50282;BME280;36176;51.506;10.272;2022-12-07T07:03:55;99185.44;;;2.53;100.00
50282;BME280;36176;51.506;10.272;2022-12-07T07:09:09;99183.50;;;2.63;100.00
50282;BME280;36176;51.506;10.272;2022-12-07T07:11:56;99180.03;;;2.64;100.00
50282;BME280;36176;51.506;10.272;2022-12-07T07:14:34;99187.78;;;2.69;100.00
50282;BME280;36176;51.506;10.272;2022-12-07T07:17:23;99188.63;;;2.71;100.00
50282;BME280;36176;51.506;10.272;2022-12-07T07:20:05;99187.69;;;2.73;99.63
50282;BME280;36176;51.506;10.272;2022-12-07T07:22:39;99194.53;;;2.79;99.85
50282;BME280;36176;51.506;10.272;2022-12-07T07:25:09;99198.00;;;2.81;99.65
50282;BME280;36176;51.506;10.272;2022-12-07T07:27:48;99188.38;;;2.83;99.64
50282;BME280;36176;51.506;10.272;2022-12-07T07:30:25;99190.94;;;2.85;99.82
50282;BME280;36176;51.506;10.272;2022-12-07T07:32:59;99189.16;;;2.87;99.81
50282;BME280;36176;51.506;10.272;2022-12-07T07:35:40;99187.38;;;2.89;98.87
50282;BME280;36176;51.506;10.272;2022-12-07T07:38:21;99186.41;;;2.93;98.92
50282;BME280;36176;51.506;10.272;2022-12-07T07:40:54;99193.41;;;2.92;98.69
50282;BME280;36176;51.506;10.272;2022-12-07T07:44:09;99199.53;;;2.91;98.62
50282;BME280;36176;51.506;10.272;2022-12-07T07:46:42;99193.44;;;2.91;98.31
50282;BME280;36176;51.506;10.272;2022-12-07T07:49:10;99196.06;;;2.89;98.69
50282;BME280;36176;51.506;10.272;2022-12-07T07:51:38;99198.66;;;2.91;98.71
50282;BME280;36176;51.506;10.272;2022-12-07T07:54:47;99199.50;;;2.93;98.98
50282;BME280;36176;51.506;10.272;2022-12-07T07:57:18;99192.41;;;2.98;98.49
50282;BME280;36176;51.506;10.272;2022-12-07T07:59:48;99192.41;;;3.00;98.29
50282;BME280;36176;51.506;10.272;2022-12-07T08:02:38;99194.00;;;3.07;98.46
50282;BME280;36176;51.506;10.272;2022-12-07T08:05:08;99194.69;;;3.13;98.22
50282;BME280;36176;51.506;10.272;2022-12-07T08:08:20;99195.50;;;3.17;98.47
50282;BME280;36176;51.506;10.272;2022-12-07T08:10:52;99197.13;;;3.23;98.19
50282;BME280;36176;51.506;10.272;2022-12-07T08:13:25;99202.34;;;3.23;97.51
50282;BME280;36176;51.506;10.272;2022-12-07T08:16:29;99204.94;;;3.26;97.52
50282;BME280;36176;51.506;10.272;2022-12-07T08:19:11;99203.13;;;3.28;97.47
50282;BME280;36176;51.506;10.272;2022-12-07T08:21:43;99199.63;;;3.27;97.57
50282;BME280;36176;51.506;10.272;2022-12-07T08:24:11;99203.09;;;3.29;97.55
50282;BME280;36176;51.506;10.272;2022-12-07T08:27:06;99207.47;;;3.29;97.06
50282;BME280;36176;51.506;10.272;2022-12-07T08:30:24;99207.56;;;3.24;96.64
50282;BME280;36176;51.506;10.272;2022-12-07T08:32:52;99212.72;;;3.27;96.40
50282;BME280;36176;51.506;10.272;2022-12-07T08:35:55;99209.34;;;3.24;96.16
50282;BME280;36176;51.506;10.272;2022-12-07T08:39:11;99213.59;;;3.28;96.67
50282;BME280;36176;51.506;10.272;2022-12-07T08:42:03;99208.41;;;3.26;96.44
50282;BME280;36176;51.506;10.272;2022-12-07T08:44:30;99216.19;;;3.29;95.70
50282;BME280;36176;51.506;10.272;2022-12-07T08:50:45;99220.13;;;3.49;96.12
50282;BME280;36176;51.506;10.272;2022-12-07T08:53:42;99209.56;;;3.52;95.27
50282;BME280;36176;51.506;10.272;2022-12-07T08:56:23;99220.94;;;3.51;94.39
50282;BME280;36176;51.506;10.272;2022-12-07T08:59:42;99218.34;;;3.49;93.88
50282;BME280;36176;51.506;10.272;2022-12-07T09:02:12;99217.56;;;3.46;93.94
50282;BME280;36176;51.506;10.272;2022-12-07T09:04:43;99213.28;;;3.43;93.37
50282;BME280;36176;51.506;10.272;2022-12-07T09:07:13;99222.00;;;3.42;93.32
50282;BME280;36176;51.506;10.272;2022-12-07T09:09:40;99214.19;;;3.40;92.53
50282;BME280;36176;51.506;10.272;2022-12-07T09:12:09;99215.13;;;3.38;93.04
50282;BME280;36176;51.506;10.272;2022-12-07T09:15:22;99218.53;;;3.41;92.71
50282;BME280;36176;51.506;10.272;2022-12-07T09:18:12;99222.88;;;3.43;92.54
50282;BME280;36176;51.506;10.272;2022-12-07T09:20:50;99218.53;;;3.41;92.93
50282;BME280;36176;51.506;10.272;2022-12-07T09:24:01;99224.53;;;3.47;93.04
50282;BME280;36176;51.506;10.272;2022-12-07T09:26:32;99220.16;;;3.47;92.90
50282;BME280;36176;51.506;10.272;2022-12-07T09:29:04;99230.56;;;3.50;92.77
50282;BME280;36176;51.506;10.272;2022-12-07T09:31:32;99232.19;;;3.54;93.21
50282;BME280;36176;51.506;10.272;2022-12-07T09:34:10;99236.53;;;3.57;93.99
50282;BME280;36176;51.506;10.272;2022-12-07T09:36:39;99232.16;;;3.57;93.99
50282;BME280;36176;51.506;10.272;2022-12-07T09:39:15;99228.59;;;3.60;92.92
50282;BME280;36176;51.506;10.272;2022-12-07T09:41:59;99235.56;;;3.61;92.46
50282;BME280;36176;51.506;10.272;2022-12-07T09:44:49;99230.38;;;3.59;92.00
50282;BME280;36176;51.506;10.272;2022-12-07T09:47:28;99229.56;;;3.56;91.72
50282;BME280;36176;51.506;10.272;2022-12-07T09:50:15;99232.00;;;3.63;91.27
50282;BME280;36176;51.506;10.272;2022-12-07T09:52:45;99239.63;;;3.74;91.56
50282;BME280;36176;51.506;10.272;2022-12-07T09:55:28;99237.56;;;3.87;91.27
50282;BME280;36176;51.506;10.272;2022-12-07T09:58:04;99235.59;;;3.97;90.95
50282;BME280;36176;51.506;10.272;2022-12-07T10:00:41;99238.97;;;4.02;90.57
50282;BME280;36176;51.506;10.272;2022-12-07T10:03:28;99229.91;;;4.15;90.88
50282;BME280;36176;51.506;10.272;2022-12-07T10:05:59;99222.78;;;4.20;89.60
50282;BME280;36176;51.506;10.272;2022-12-07T10:08:26;99217.41;;;4.26;89.76
50282;BME280;36176;51.506;10.272;2022-12-07T10:13:53;99208.78;;;4.21;88.72
50282;BME280;36176;51.506;10.272;2022-12-07T10:16:46;99209.66;;;4.22;88.48
50282;BME280;36176;51.506;10.272;2022-12-07T10:19:30;99205.28;;;4.21;88.64
50282;BME280;36176;51.506;10.272;2022-12-07T10:22:14;99211.53;;;4.17;88.77
50282;BME280;36176;51.506;10.272;2022-12-07T10:24:49;99212.47;;;4.14;88.40
50282;BME280;36176;51.506;10.272;2022-12-07T10:49:54;99190.25;;;4.28;87.03
50282;BME280;36176;51.506;10.272;2022-12-07T10:53:51;99189.44;;;4.25;87.66
50282;BME280;36176;51.506;10.272;2022-12-07T11:25:50;99195.16;;;4.07;85.01
50282;BME280;36176;51.506;10.272;2022-12-07T11:28:31;99189.22;;;3.99;85.61
50282;BME280;36176;51.506;10.272;2022-12-07T11:38:21;99187.56;;;3.96;86.21
50282;BME280;36176;51.506;10.272;2022-12-07T11:41:01;99186.69;;;3.96;85.62
50282;BME280;36176;51.506;10.272;2022-12-07T11:47:51;99178.66;;;4.02;85.16
50282;BME280;36176;51.506;10.272;2022-12-07T11:50:50;99176.75;;;4.09;85.56
50282;BME280;36176;51.506;10.272;2022-12-07T11:54:40;99185.22;;;4.20;84.83
50282;BME280;36176;51.506;10.272;2022-12-07T11:58:03;99169.03;;;4.37;85.24
50282;BME280;36176;51.506;10.272;2022-12-07T12:01:01;99169.56;;;4.50;84.28
50282;BME280;36176;51.506;10.272;2022-12-07T12:07:22;99164.66;;;4.68;82.66
50282;BME280;36176;51.506;10.272;2022-12-07T12:20:22;99156.53;;;4.46;81.82
50282;BME280;36176;51.506;10.272;2022-12-07T12:27:06;99157.56;;;4.41;83.32
50282;BME280;36176;51.506;10.272;2022-12-07T12:32:44;99146.25;;;4.39;83.49
50282;BME280;36176;51.506;10.272;2022-12-07T12:35:36;99145.31;;;4.41;83.83
50282;BME280;36176;51.506;10.272;2022-12-07T12:38:23;99144.31;;;4.45;83.34
50282;BME280;36176;51.506;10.272;2022-12-07T12:48:29;99145.25;;;4.43;83.77
50282;BME280;36176;51.506;10.272;2022-12-07T12:51:35;99141.84;;;4.39;82.95
50282;BME280;36176;51.506;10.272;2022-12-07T12:54:34;99135.19;;;4.28;83.16
50282;BME280;36176;51.506;10.272;2022-12-07T13:04:17;99126.47;;;4.27;83.55
50282;BME280;36176;51.506;10.272;2022-12-07T13:06:49;99127.22;;;4.31;84.21
50282;BME280;36176;51.506;10.272;2022-12-07T13:09:43;99121.19;;;4.29;84.35
50282;BME280;36176;51.506;10.272;2022-12-07T13:12:13;99115.13;;;4.26;83.44
50282;BME280;36176;51.506;10.272;2022-12-07T13:14:52;99117.75;;;4.26;83.73
50282;BME280;36176;51.506;10.272;2022-12-07T13:20:43;99109.81;;;4.28;83.66
50282;BME280;36176;51.506;10.272;2022-12-07T13:27:10;99109.94;;;4.23;83.85
50282;BME280;36176;51.506;10.272;2022-12-07T13:29:53;99102.88;;;4.25;84.35
50282;BME280;36176;51.506;10.272;2022-12-07T13:33:03;99109.88;;;4.26;84.30
50282;BME280;36176;51.506;10.272;2022-12-07T13:39:25;99118.97;;;4.12;84.25
50282;BME280;36176;51.506;10.272;2022-12-07T13:41:53;99114.69;;;4.09;85.17
50282;BME280;36176;51.506;10.272;2022-12-07T13:44:40;99112.06;;;4.09;84.98
50282;BME280;36176;51.506;10.272;2022-12-07T13:47:20;99110.50;;;4.02;85.54
50282;BME280;36176;51.506;10.272;2022-12-07T13:50:31;99112.28;;;4.01;85.58
50282;BME280;36176;51.506;10.272;2022-12-07T13:53:27;99108.16;;;3.93;86.46
50282;BME280;36176;51.506;10.272;2022-12-07T13:55:59;99112.59;;;3.89;86.03
50282;BME280;36176;51.506;10.272;2022-12-07T13:58:44;99112.72;;;3.83;85.87
50282;BME280;36176;51.506;10.272;2022-12-07T14:05:12;99114.78;;;3.72;85.19
50282;BME280;36176;51.506;10.272;2022-12-07T14:10:52;99107.97;;;3.65;85.18
50282;BME280;36176;51.506;10.272;2022-12-07T14:13:51;99101.00;;;3.63;85.58
50282;BME280;36176;51.506;10.272;2022-12-07T14:17:15;99106.25;;;3.63;85.76
50282;BME280;36176;51.506;10.272;2022-12-07T14:23:27;99098.44;;;3.62;86.37
50282;BME280;36176;51.506;10.272;2022-12-07T14:26:14;99099.28;;;3.62;86.02
50282;BME280;36176;51.506;10.272;2022-12-07T14:29:19;99101.91;;;3.62;86.25
50282;BME280;36176;51.506;10.272;2022-12-07T14:35:43;99094.16;;;3.58;85.63
50282;BME280;36176;51.506;10.272;2022-12-07T14:38:43;99098.59;;;3.56;85.35
50282;BME280;36176;51.506;10.272;2022-12-07T14:41:31;99095.97;;;3.56;85.37
50282;BME280;36176;51.506;10.272;2022-12-07T14:44:30;99093.38;;;3.54;85.61
50282;BME280;36176;51.506;10.272;2022-12-07T14:47:21;99095.13;;;3.54;86.11
50282;BME280;36176;51.506;10.272;2022-12-07T14:50:13;99094.25;;;3.55;85.81
50282;BME280;36176;51.506;10.272;2022-12-07T14:56:48;99084.81;;;3.48;86.42
50282;BME280;36176;51.506;10.272;2022-12-07T15:00:18;99076.97;;;3.48;86.88
50282;BME280;36176;51.506;10.272;2022-12-07T15:03:40;99083.16;;;3.44;86.74
50282;BME280;36176;51.506;10.272;2022-12-07T15:06:25;99087.56;;;3.41;87.10
50282;BME280;36176;51.506;10.272;2022-12-07T15:09:01;99092.88;;;3.40;86.98
50282;BME280;36176;51.506;10.272;2022-12-07T15:11:38;99092.91;;;3.38;86.89
50282;BME280;36176;51.506;10.272;2022-12-07T15:14:10;99092.91;;;3.38;86.34
50282;BME280;36176;51.506;10.272;2022-12-07T15:16:45;99080.66;;;3.39;86.54
50282;BME280;36176;51.506;10.272;2022-12-07T15:19:44;99083.31;;;3.37;86.45
50282;BME280;36176;51.506;10.272;2022-12-07T15:22:38;99087.75;;;3.35;87.22
50282;BME280;36176;51.506;10.272;2022-12-07T15:25:51;99084.22;;;3.36;86.53
50282;BME280;36176;51.506;10.272;2022-12-07T15:28:30;99072.88;;;3.36;86.53
50282;BME280;36176;51.506;10.272;2022-12-07T15:31:12;99083.38;;;3.36;86.19
50282;BME280;36176;51.506;10.272;2022-12-07T15:34:03;99085.19;;;3.32;86.79
50282;BME280;36176;51.506;10.272;2022-12-07T15:36:32;99083.44;;;3.33;86.77
50282;BME280;36176;51.506;10.272;2022-12-07T15:39:22;99088.63;;;3.34;86.47
50282;BME280;36176;51.506;10.272;2022-12-07T15:42:07;99088.53;;;3.37;87.21
50282;BME280;36176;51.506;10.272;2022-12-07T15:44:35;99079.00;;;3.35;86.81
50282;BME280;36176;51.506;10.272;2022-12-07T15:47:57;99079.94;;;3.32;86.88
50282;BME280;36176;51.506;10.272;2022-12-07T15:50:44;99076.50;;;3.30;86.39
50282;BME280;36176;51.506;10.272;2022-12-07T15:53:31;99084.41;;;3.29;86.34
50282;BME280;36176;51.506;10.272;2022-12-07T15:56:25;99083.56;;;3.28;86.96
50282;BME280;36176;51.506;10.272;2022-12-07T15:58:53;99076.50;;;3.30;86.99
50282;BME280;36176;51.506;10.272;2022-12-07T16:01:20;99079.16;;;3.29;87.00
50282;BME280;36176;51.506;10.272;2022-12-07T16:03:50;99072.16;;;3.29;87.11
50282;BME280;36176;51.506;10.272;2022-12-07T16:06:46;99076.53;;;3.29;87.26
50282;BME280;36176;51.506;10.272;2022-12-07T16:13:20;99074.00;;;3.26;86.53
50282;BME280;36176;51.506;10.272;2022-12-07T16:15:48;99074.88;;;3.26;86.83
50282;BME280;36176;51.506;10.272;2022-12-07T16:18:15;99077.53;;;3.23;87.16
50282;BME280;36176;51.506;10.272;2022-12-07T16:20:42;99081.97;;;3.21;87.29
50282;BME280;36176;51.506;10.272;2022-12-07T16:23:28;99078.44;;;3.22;87.53
50282;BME280;36176;51.506;10.272;2022-12-07T16:26:34;99084.53;;;3.23;87.25
50282;BME280;36176;51.506;10.272;2022-12-07T16:29:14;99085.38;;;3.23;87.55
50282;BME280;36176;51.506;10.272;2022-12-07T16:31:48;99090.56;;;3.26;86.86
50282;BME280;36176;51.506;10.272;2022-12-07T16:34:18;99084.34;;;3.30;87.30
50282;BME280;36176;51.506;10.272;2022-12-07T16:37:09;99086.94;;;3.32;87.18
50282;BME280;36176;51.506;10.272;2022-12-07T16:43:53;99074.88;;;3.26;87.94
50282;BME280;36176;51.506;10.272;2022-12-07T16:46:40;99078.22;;;3.31;87.96
50282;BME280;36176;51.506;10.272;2022-12-07T16:50:08;99079.09;;;3.32;87.89
50282;BME280;36176;51.506;10.272;2022-12-07T16:52:53;99090.41;;;3.32;87.84